sensor_id;sensor_type;location;lat;lon;timestamp;P1;durP1;ratioP1;P2;durP2;ratioP2
23988;SDS011;12202;52.136;5.592;2022-09-01T00:01:17;5.30;;;2.50;;
23988;SDS011;12202;52.136;5.592;2022-09-01T00:03:46;6.68;;;2.40;;
23988;SDS011;12202;52.136;5.592;2022-09-01T00:06:13;6.90;;;2.53;;
23988;SDS011;12202;52.136;5.592;2022-09-01T00:08:39;4.53;;;2.78;;
23988;SDS011;12202;52.136;5.592;2022-09-01T00:11:05;3.10;;;2.20;;
23988;SDS011;12202;52.136;5.592;2022-09-01T00:13:31;15.20;;;2.28;;
23988;SDS011;12202;52.136;5.592;2022-09-01T00:15:59;3.35;;;2.30;;
23988;SDS011;12202;52.136;5.592;2022-09-01T00:18:25;4.32;;;2.22;;
23988;SDS011;12202;52.136;5.592;2022-09-01T00:20:51;6.47;;;2.40;;
23988;SDS011;12202;52.136;5.592;2022-09-01T00:23:19;6.13;;;2.72;;
23988;SDS011;12202;52.136;5.592;2022-09-01T00:25:45;7.03;;;2.97;;
23988;SDS011;12202;52.136;5.592;2022-09-01T00:28:11;3.20;;;2.70;;
23988;SDS011;12202;52.136;5.592;2022-09-01T00:30:37;10.45;;;3.42;;
23988;SDS011;12202;52.136;5.592;2022-09-01T00:33:03;9.43;;;3.15;;
23988;SDS011;12202;52.136;5.592;2022-09-01T00:35:29;6.03;;;2.70;;
23988;SDS011;12202;52.136;5.592;2022-09-01T00:37:55;7.20;;;2.67;;
23988;SDS011;12202;52.136;5.592;2022-09-01T00:40:21;4.88;;;2.60;;
23988;SDS011;12202;52.136;5.592;2022-09-01T00:42:47;5.85;;;2.95;;
23988;SDS011;12202;52.136;5.592;2022-09-01T00:45:13;10.23;;;2.88;;
23988;SDS011;12202;52.136;5.592;2022-09-01T00:47:39;6.32;;;3.20;;
23988;SDS011;12202;52.136;5.592;2022-09-01T00:50:06;7.25;;;3.67;;
23988;SDS011;12202;52.136;5.592;2022-09-01T00:52:37;6.78;;;3.33;;
23988;SDS011;12202;52.136;5.592;2022-09-01T00:55:12;5.45;;;3.75;;
23988;SDS011;12202;52.136;5.592;2022-09-01T00:57:39;7.53;;;3.03;;
23988;SDS011;12202;52.136;5.592;2022-09-01T01:00:07;5.00;;;3.28;;
23988;SDS011;12202;52.136;5.592;2022-09-01T01:02:35;8.73;;;3.17;;
23988;SDS011;12202;52.136;5.592;2022-09-01T01:05:03;8.77;;;3.20;;
23988;SDS011;12202;52.136;5.592;2022-09-01T01:07:29;9.30;;;3.20;;
23988;SDS011;12202;52.136;5.592;2022-09-01T01:09:55;8.65;;;2.88;;
23988;SDS011;12202;52.136;5.592;2022-09-01T01:12:21;14.05;;;3.30;;
23988;SDS011;12202;52.136;5.592;2022-09-01T01:14:48;4.57;;;2.85;;
23988;SDS011;12202;52.136;5.592;2022-09-01T01:17:14;6.07;;;3.33;;
23988;SDS011;12202;52.136;5.592;2022-09-01T01:25:26;4.55;;;3.00;;
23988;SDS011;12202;52.136;5.592;2022-09-01T01:28:01;9.25;;;3.53;;
23988;SDS011;12202;52.136;5.592;2022-09-01T01:30:27;6.38;;;3.25;;
23988;SDS011;12202;52.136;5.592;2022-09-01T01:32:58;6.38;;;3.40;;
23988;SDS011;12202;52.136;5.592;2022-09-01T01:35:25;6.32;;;4.18;;
23988;SDS011;12202;52.136;5.592;2022-09-01T01:37:51;5.50;;;3.83;;
23988;SDS011;12202;52.136;5.592;2022-09-01T01:40:19;5.25;;;3.40;;
23988;SDS011;12202;52.136;5.592;2022-09-01T01:42:48;7.32;;;3.20;;
23988;SDS011;12202;52.136;5.592;2022-09-01T01:45:15;6.78;;;3.22;;
23988;SDS011;12202;52.136;5.592;2022-09-01T01:47:42;6.05;;;3.38;;
23988;SDS011;12202;52.136;5.592;2022-09-01T01:50:11;5.53;;;3.45;;
23988;SDS011;12202;52.136;5.592;2022-09-01T01:52:38;5.75;;;3.85;;
23988;SDS011;12202;52.136;5.592;2022-09-01T01:55:05;9.75;;;3.92;;
23988;SDS011;12202;52.136;5.592;2022-09-01T01:57:36;8.38;;;2.97;;
23988;SDS011;12202;52.136;5.592;2022-09-01T02:00:03;7.90;;;4.22;;
23988;SDS011;12202;52.136;5.592;2022-09-01T02:02:29;6.28;;;3.65;;
23988;SDS011;12202;52.136;5.592;2022-09-01T02:04:55;5.72;;;3.50;;
23988;SDS011;12202;52.136;5.592;2022-09-01T02:07:22;5.28;;;3.45;;
23988;SDS011;12202;52.136;5.592;2022-09-01T02:09:48;6.43;;;3.88;;
23988;SDS011;12202;52.136;5.592;2022-09-01T02:12:14;7.35;;;4.05;;
23988;SDS011;12202;52.136;5.592;2022-09-01T02:14:43;5.95;;;3.30;;
23988;SDS011;12202;52.136;5.592;2022-09-01T02:17:09;7.03;;;3.60;;
23988;SDS011;12202;52.136;5.592;2022-09-01T02:19:35;7.20;;;4.47;;
23988;SDS011;12202;52.136;5.592;2022-09-01T02:22:04;11.38;;;4.40;;
23988;SDS011;12202;52.136;5.592;2022-09-01T02:24:30;5.40;;;4.13;;
23988;SDS011;12202;52.136;5.592;2022-09-01T02:26:56;4.82;;;3.47;;
23988;SDS011;12202;52.136;5.592;2022-09-01T02:29:24;10.60;;;4.00;;
23988;SDS011;12202;52.136;5.592;2022-09-01T02:31:53;8.13;;;3.67;;
23988;SDS011;12202;52.136;5.592;2022-09-01T02:34:19;6.57;;;3.97;;
23988;SDS011;12202;52.136;5.592;2022-09-01T02:36:48;5.68;;;3.65;;
23988;SDS011;12202;52.136;5.592;2022-09-01T02:39:36;5.68;;;3.78;;
23988;SDS011;12202;52.136;5.592;2022-09-01T02:42:01;6.30;;;4.05;;
23988;SDS011;12202;52.136;5.592;2022-09-01T02:44:27;5.18;;;3.78;;
23988;SDS011;12202;52.136;5.592;2022-09-01T02:46:54;10.50;;;3.92;;
23988;SDS011;12202;52.136;5.592;2022-09-01T02:49:22;8.27;;;5.18;;
23988;SDS011;12202;52.136;5.592;2022-09-01T02:51:52;5.97;;;4.03;;
23988;SDS011;12202;52.136;5.592;2022-09-01T02:54:22;8.02;;;4.07;;
23988;SDS011;12202;52.136;5.592;2022-09-01T02:56:49;6.80;;;3.95;;
23988;SDS011;12202;52.136;5.592;2022-09-01T02:59:18;6.57;;;3.97;;
23988;SDS011;12202;52.136;5.592;2022-09-01T03:01:46;12.75;;;4.75;;
23988;SDS011;12202;52.136;5.592;2022-09-01T03:04:12;9.30;;;4.25;;
23988;SDS011;12202;52.136;5.592;2022-09-01T03:06:38;8.82;;;4.50;;
23988;SDS011;12202;52.136;5.592;2022-09-01T03:09:05;9.05;;;4.47;;
23988;SDS011;12202;52.136;5.592;2022-09-01T03:11:32;10.40;;;4.13;;
23988;SDS011;12202;52.136;5.592;2022-09-01T03:13:59;5.80;;;4.40;;
23988;SDS011;12202;52.136;5.592;2022-09-01T03:16:25;6.68;;;4.45;;
23988;SDS011;12202;52.136;5.592;2022-09-01T03:18:51;13.95;;;4.22;;
23988;SDS011;12202;52.136;5.592;2022-09-01T03:21:20;5.85;;;4.68;;
23988;SDS011;12202;52.136;5.592;2022-09-01T03:23:47;8.82;;;4.30;;
23988;SDS011;12202;52.136;5.592;2022-09-01T03:26:14;6.32;;;4.40;;
23988;SDS011;12202;52.136;5.592;2022-09-01T03:28:42;7.22;;;4.50;;
23988;SDS011;12202;52.136;5.592;2022-09-01T03:31:08;5.82;;;4.30;;
23988;SDS011;12202;52.136;5.592;2022-09-01T03:33:34;7.07;;;4.72;;
23988;SDS011;12202;52.136;5.592;2022-09-01T03:36:00;8.93;;;4.43;;
23988;SDS011;12202;52.136;5.592;2022-09-01T03:38:26;9.18;;;4.53;;
23988;SDS011;12202;52.136;5.592;2022-09-01T03:40:53;7.53;;;4.93;;
23988;SDS011;12202;52.136;5.592;2022-09-01T03:43:23;10.77;;;4.25;;
23988;SDS011;12202;52.136;5.592;2022-09-01T03:45:51;12.40;;;4.60;;
23988;SDS011;12202;52.136;5.592;2022-09-01T03:48:19;8.48;;;4.57;;
23988;SDS011;12202;52.136;5.592;2022-09-01T03:50:45;8.57;;;4.22;;
23988;SDS011;12202;52.136;5.592;2022-09-01T03:53:16;5.53;;;4.28;;
23988;SDS011;12202;52.136;5.592;2022-09-01T03:55:44;4.70;;;4.18;;
23988;SDS011;12202;52.136;5.592;2022-09-01T03:58:11;8.25;;;4.53;;
23988;SDS011;12202;52.136;5.592;2022-09-01T04:00:40;9.05;;;4.55;;
23988;SDS011;12202;52.136;5.592;2022-09-01T04:03:07;4.65;;;4.10;;
23988;SDS011;12202;52.136;5.592;2022-09-01T04:05:35;7.28;;;4.15;;
23988;SDS011;12202;52.136;5.592;2022-09-01T04:08:03;8.35;;;5.45;;
23988;SDS011;12202;52.136;5.592;2022-09-01T04:10:30;6.25;;;4.30;;
23988;SDS011;12202;52.136;5.592;2022-09-01T04:12:56;9.40;;;4.07;;
23988;SDS011;12202;52.136;5.592;2022-09-01T04:15:23;6.50;;;4.25;;
23988;SDS011;12202;52.136;5.592;2022-09-01T04:17:49;12.93;;;4.57;;
23988;SDS011;12202;52.136;5.592;2022-09-01T04:20:38;5.28;;;4.28;;
23988;SDS011;12202;52.136;5.592;2022-09-01T04:23:33;5.70;;;4.20;;
23988;SDS011;12202;52.136;5.592;2022-09-01T04:25:59;8.23;;;4.47;;
23988;SDS011;12202;52.136;5.592;2022-09-01T04:28:33;9.32;;;3.88;;
23988;SDS011;12202;52.136;5.592;2022-09-01T04:31:01;8.95;;;4.60;;
23988;SDS011;12202;52.136;5.592;2022-09-01T04:33:29;6.32;;;4.22;;
23988;SDS011;12202;52.136;5.592;2022-09-01T04:36:03;8.13;;;4.18;;
23988;SDS011;12202;52.136;5.592;2022-09-01T04:38:29;8.93;;;4.43;;
23988;SDS011;12202;52.136;5.592;2022-09-01T04:40:56;10.18;;;5.13;;
23988;SDS011;12202;52.136;5.592;2022-09-01T04:43:23;11.80;;;4.18;;
23988;SDS011;12202;52.136;5.592;2022-09-01T04:45:49;9.57;;;4.35;;
23988;SDS011;12202;52.136;5.592;2022-09-01T04:48:16;6.68;;;3.85;;
23988;SDS011;12202;52.136;5.592;2022-09-01T04:50:43;9.32;;;4.72;;
23988;SDS011;12202;52.136;5.592;2022-09-01T04:53:09;16.92;;;4.95;;
23988;SDS011;12202;52.136;5.592;2022-09-01T04:55:37;8.38;;;4.50;;
23988;SDS011;12202;52.136;5.592;2022-09-01T04:58:07;8.07;;;4.35;;
23988;SDS011;12202;52.136;5.592;2022-09-01T05:00:34;8.98;;;4.80;;
23988;SDS011;12202;52.136;5.592;2022-09-01T05:03:01;7.57;;;3.97;;
23988;SDS011;12202;52.136;5.592;2022-09-01T05:05:34;9.20;;;4.20;;
23988;SDS011;12202;52.136;5.592;2022-09-01T05:08:03;5.78;;;4.13;;
23988;SDS011;12202;52.136;5.592;2022-09-01T05:10:29;12.32;;;4.65;;
23988;SDS011;12202;52.136;5.592;2022-09-01T05:12:57;16.88;;;4.43;;
23988;SDS011;12202;52.136;5.592;2022-09-01T05:15:23;5.78;;;3.78;;
23988;SDS011;12202;52.136;5.592;2022-09-01T05:17:49;9.45;;;4.20;;
23988;SDS011;12202;52.136;5.592;2022-09-01T05:20:19;6.70;;;4.00;;
23988;SDS011;12202;52.136;5.592;2022-09-01T05:22:45;6.10;;;4.30;;
23988;SDS011;12202;52.136;5.592;2022-09-01T05:25:11;6.65;;;3.83;;
23988;SDS011;12202;52.136;5.592;2022-09-01T05:27:41;6.35;;;3.92;;
23988;SDS011;12202;52.136;5.592;2022-09-01T05:30:13;19.83;;;5.55;;
23988;SDS011;12202;52.136;5.592;2022-09-01T05:32:40;8.43;;;3.83;;
23988;SDS011;12202;52.136;5.592;2022-09-01T05:35:07;7.03;;;4.10;;
23988;SDS011;12202;52.136;5.592;2022-09-01T05:37:36;11.40;;;4.10;;
23988;SDS011;12202;52.136;5.592;2022-09-01T05:40:06;5.30;;;3.83;;
23988;SDS011;12202;52.136;5.592;2022-09-01T05:42:33;5.38;;;3.38;;
23988;SDS011;12202;52.136;5.592;2022-09-01T05:45:04;8.82;;;3.47;;
23988;SDS011;12202;52.136;5.592;2022-09-01T05:47:30;4.80;;;3.63;;
23988;SDS011;12202;52.136;5.592;2022-09-01T05:50:00;5.18;;;3.20;;
23988;SDS011;12202;52.136;5.592;2022-09-01T05:52:27;5.28;;;3.42;;
23988;SDS011;12202;52.136;5.592;2022-09-01T05:54:55;7.35;;;3.50;;
23988;SDS011;12202;52.136;5.592;2022-09-01T05:57:24;7.53;;;3.90;;
23988;SDS011;12202;52.136;5.592;2022-09-01T05:59:50;8.45;;;3.75;;
23988;SDS011;12202;52.136;5.592;2022-09-01T06:02:18;6.82;;;4.20;;
23988;SDS011;12202;52.136;5.592;2022-09-01T06:04:45;9.23;;;3.78;;
23988;SDS011;12202;52.136;5.592;2022-09-01T06:07:12;10.40;;;3.40;;
23988;SDS011;12202;52.136;5.592;2022-09-01T06:09:39;7.45;;;3.30;;
23988;SDS011;12202;52.136;5.592;2022-09-01T06:12:05;6.75;;;3.00;;
23988;SDS011;12202;52.136;5.592;2022-09-01T06:14:33;10.80;;;3.90;;
23988;SDS011;12202;52.136;5.592;2022-09-01T06:16:59;4.57;;;3.60;;
23988;SDS011;12202;52.136;5.592;2022-09-01T06:19:25;4.50;;;3.22;;
23988;SDS011;12202;52.136;5.592;2022-09-01T06:21:50;4.97;;;3.47;;
23988;SDS011;12202;52.136;5.592;2022-09-01T06:24:17;14.07;;;5.20;;
23988;SDS011;12202;52.136;5.592;2022-09-01T06:26:43;5.55;;;3.67;;
23988;SDS011;12202;52.136;5.592;2022-09-01T06:29:10;9.13;;;4.05;;
23988;SDS011;12202;52.136;5.592;2022-09-01T06:31:39;6.18;;;3.83;;
23988;SDS011;12202;52.136;5.592;2022-09-01T06:34:07;8.43;;;3.63;;
23988;SDS011;12202;52.136;5.592;2022-09-01T06:36:37;6.38;;;3.65;;
23988;SDS011;12202;52.136;5.592;2022-09-01T06:39:04;6.50;;;3.28;;
23988;SDS011;12202;52.136;5.592;2022-09-01T06:41:31;11.93;;;3.30;;
23988;SDS011;12202;52.136;5.592;2022-09-01T06:43:57;4.97;;;3.15;;
23988;SDS011;12202;52.136;5.592;2022-09-01T06:46:25;5.45;;;3.58;;
23988;SDS011;12202;52.136;5.592;2022-09-01T06:48:52;7.15;;;3.60;;
23988;SDS011;12202;52.136;5.592;2022-09-01T06:51:20;6.85;;;3.53;;
23988;SDS011;12202;52.136;5.592;2022-09-01T06:53:47;6.78;;;3.67;;
23988;SDS011;12202;52.136;5.592;2022-09-01T06:56:24;6.20;;;3.15;;
23988;SDS011;12202;52.136;5.592;2022-09-01T06:58:52;19.20;;;4.47;;
23988;SDS011;12202;52.136;5.592;2022-09-01T07:01:19;11.02;;;3.55;;
23988;SDS011;12202;52.136;5.592;2022-09-01T07:03:46;4.18;;;2.80;;
23988;SDS011;12202;52.136;5.592;2022-09-01T07:06:15;7.35;;;3.28;;
23988;SDS011;12202;52.136;5.592;2022-09-01T07:08:41;7.47;;;3.15;;
23988;SDS011;12202;52.136;5.592;2022-09-01T07:11:17;8.20;;;3.78;;
23988;SDS011;12202;52.136;5.592;2022-09-01T07:13:47;9.95;;;3.67;;
23988;SDS011;12202;52.136;5.592;2022-09-01T07:16:17;6.60;;;3.00;;
23988;SDS011;12202;52.136;5.592;2022-09-01T07:18:47;11.88;;;3.45;;
23988;SDS011;12202;52.136;5.592;2022-09-01T07:21:13;3.90;;;2.70;;
23988;SDS011;12202;52.136;5.592;2022-09-01T07:23:39;6.85;;;2.90;;
23988;SDS011;12202;52.136;5.592;2022-09-01T07:26:07;3.70;;;2.85;;
23988;SDS011;12202;52.136;5.592;2022-09-01T07:28:34;4.07;;;2.83;;
23988;SDS011;12202;52.136;5.592;2022-09-01T07:31:00;5.78;;;2.55;;
23988;SDS011;12202;52.136;5.592;2022-09-01T07:33:29;9.20;;;4.00;;
23988;SDS011;12202;52.136;5.592;2022-09-01T07:35:56;4.68;;;2.47;;
23988;SDS011;12202;52.136;5.592;2022-09-01T07:38:25;4.43;;;2.33;;
23988;SDS011;12202;52.136;5.592;2022-09-01T07:40:52;7.05;;;2.40;;
23988;SDS011;12202;52.136;5.592;2022-09-01T07:43:22;2.90;;;2.20;;
23988;SDS011;12202;52.136;5.592;2022-09-01T07:45:50;7.75;;;2.80;;
23988;SDS011;12202;52.136;5.592;2022-09-01T07:48:18;6.00;;;2.50;;
23988;SDS011;12202;52.136;5.592;2022-09-01T07:50:45;4.30;;;2.03;;
23988;SDS011;12202;52.136;5.592;2022-09-01T07:53:15;5.75;;;1.90;;
23988;SDS011;12202;52.136;5.592;2022-09-01T07:55:42;4.32;;;2.05;;
23988;SDS011;12202;52.136;5.592;2022-09-01T07:58:08;6.78;;;2.10;;
23988;SDS011;12202;52.136;5.592;2022-09-01T08:00:34;5.68;;;1.77;;
23988;SDS011;12202;52.136;5.592;2022-09-01T08:03:01;7.18;;;2.25;;
23988;SDS011;12202;52.136;5.592;2022-09-01T08:05:27;3.63;;;1.92;;
23988;SDS011;12202;52.136;5.592;2022-09-01T08:07:53;3.83;;;2.38;;
23988;SDS011;12202;52.136;5.592;2022-09-01T08:10:19;7.10;;;2.35;;
23988;SDS011;12202;52.136;5.592;2022-09-01T08:12:45;2.90;;;2.13;;
23988;SDS011;12202;52.136;5.592;2022-09-01T08:15:11;2.92;;;2.00;;
23988;SDS011;12202;52.136;5.592;2022-09-01T08:17:38;3.20;;;1.88;;
23988;SDS011;12202;52.136;5.592;2022-09-01T08:20:04;5.65;;;1.60;;
23988;SDS011;12202;52.136;5.592;2022-09-01T08:22:34;5.60;;;1.50;;
23988;SDS011;12202;52.136;5.592;2022-09-01T08:25:02;4.18;;;1.60;;
23988;SDS011;12202;52.136;5.592;2022-09-01T08:27:30;2.15;;;1.70;;
23988;SDS011;12202;52.136;5.592;2022-09-01T08:29:56;4.35;;;1.65;;
23988;SDS011;12202;52.136;5.592;2022-09-01T08:32:22;3.38;;;1.60;;
23988;SDS011;12202;52.136;5.592;2022-09-01T08:34:48;3.80;;;1.90;;
23988;SDS011;12202;52.136;5.592;2022-09-01T08:37:14;4.78;;;1.80;;
23988;SDS011;12202;52.136;5.592;2022-09-01T08:39:40;3.90;;;1.35;;
23988;SDS011;12202;52.136;5.592;2022-09-01T08:42:12;3.40;;;2.08;;
23988;SDS011;12202;52.136;5.592;2022-09-01T08:44:42;4.20;;;1.55;;
23988;SDS011;12202;52.136;5.592;2022-09-01T08:47:10;5.20;;;1.40;;
23988;SDS011;12202;52.136;5.592;2022-09-01T08:49:38;7.97;;;1.77;;
23988;SDS011;12202;52.136;5.592;2022-09-01T08:54:44;4.05;;;1.40;;
23988;SDS011;12202;52.136;5.592;2022-09-01T08:57:15;4.03;;;1.30;;
23988;SDS011;12202;52.136;5.592;2022-09-01T08:59:42;2.10;;;1.50;;
23988;SDS011;12202;52.136;5.592;2022-09-01T09:02:20;3.50;;;1.38;;
23988;SDS011;12202;52.136;5.592;2022-09-01T09:12:30;4.70;;;1.30;;
23988;SDS011;12202;52.136;5.592;2022-09-01T09:15:09;4.40;;;1.23;;
23988;SDS011;12202;52.136;5.592;2022-09-01T09:17:41;5.85;;;1.10;;
23988;SDS011;12202;52.136;5.592;2022-09-01T09:20:08;5.50;;;1.20;;
23988;SDS011;12202;52.136;5.592;2022-09-01T09:22:34;2.72;;;1.00;;
23988;SDS011;12202;52.136;5.592;2022-09-01T09:27:33;2.17;;;1.00;;
23988;SDS011;12202;52.136;5.592;2022-09-01T09:30:09;2.55;;;0.98;;
23988;SDS011;12202;52.136;5.592;2022-09-01T09:37:46;4.40;;;1.13;;
23988;SDS011;12202;52.136;5.592;2022-09-01T09:40:14;2.92;;;0.95;;
23988;SDS011;12202;52.136;5.592;2022-09-01T09:45:23;2.97;;;1.00;;
23988;SDS011;12202;52.136;5.592;2022-09-01T09:47:51;8.43;;;1.30;;
23988;SDS011;12202;52.136;5.592;2022-09-01T09:50:22;8.65;;;1.20;;
23988;SDS011;12202;52.136;5.592;2022-09-01T09:52:48;4.72;;;1.05;;
23988;SDS011;12202;52.136;5.592;2022-09-01T09:55:36;2.78;;;0.90;;
23988;SDS011;12202;52.136;5.592;2022-09-01T09:58:07;3.80;;;0.80;;
23988;SDS011;12202;52.136;5.592;2022-09-01T10:00:34;7.88;;;1.23;;
23988;SDS011;12202;52.136;5.592;2022-09-01T10:03:02;0.93;;;0.80;;
23988;SDS011;12202;52.136;5.592;2022-09-01T10:08:01;3.55;;;0.88;;
23988;SDS011;12202;52.136;5.592;2022-09-01T10:13:02;3.83;;;0.90;;
23988;SDS011;12202;52.136;5.592;2022-09-01T10:15:29;2.60;;;1.23;;
23988;SDS011;12202;52.136;5.592;2022-09-01T10:17:59;4.30;;;1.17;;
23988;SDS011;12202;52.136;5.592;2022-09-01T10:20:26;6.90;;;1.30;;
23988;SDS011;12202;52.136;5.592;2022-09-01T10:22:52;2.75;;;0.70;;
23988;SDS011;12202;52.136;5.592;2022-09-01T10:25:20;4.63;;;0.90;;
23988;SDS011;12202;52.136;5.592;2022-09-01T10:27:48;4.25;;;1.02;;
23988;SDS011;12202;52.136;5.592;2022-09-01T10:30:16;4.05;;;0.90;;
23988;SDS011;12202;52.136;5.592;2022-09-01T10:32:43;2.13;;;0.75;;
23988;SDS011;12202;52.136;5.592;2022-09-01T10:35:17;5.85;;;0.90;;
23988;SDS011;12202;52.136;5.592;2022-09-01T10:37:45;4.25;;;0.82;;
23988;SDS011;12202;52.136;5.592;2022-09-01T10:42:38;1.45;;;0.80;;
23988;SDS011;12202;52.136;5.592;2022-09-01T10:45:06;2.08;;;0.70;;
23988;SDS011;12202;52.136;5.592;2022-09-01T10:47:40;2.35;;;0.90;;
23988;SDS011;12202;52.136;5.592;2022-09-01T10:50:29;3.88;;;0.90;;
23988;SDS011;12202;52.136;5.592;2022-09-01T10:53:00;1.92;;;0.75;;
23988;SDS011;12202;52.136;5.592;2022-09-01T10:55:33;1.30;;;0.90;;
23988;SDS011;12202;52.136;5.592;2022-09-01T10:58:19;0.52;;;0.52;;
23988;SDS011;12202;52.136;5.592;2022-09-01T11:00:47;2.47;;;0.80;;
23988;SDS011;12202;52.136;5.592;2022-09-01T11:06:02;1.50;;;0.60;;
23988;SDS011;12202;52.136;5.592;2022-09-01T11:16:23;2.33;;;1.40;;
23988;SDS011;12202;52.136;5.592;2022-09-01T11:18:49;4.18;;;0.63;;
23988;SDS011;12202;52.136;5.592;2022-09-01T11:21:25;1.88;;;0.90;;
23988;SDS011;12202;52.136;5.592;2022-09-01T11:26:43;3.75;;;0.68;;
23988;SDS011;12202;52.136;5.592;2022-09-01T11:29:48;10.88;;;1.15;;
23988;SDS011;12202;52.136;5.592;2022-09-01T11:31:55;2.17;;;0.63;;
23988;SDS011;12202;52.136;5.592;2022-09-01T11:34:22;2.17;;;0.75;;
23988;SDS011;12202;52.136;5.592;2022-09-01T11:36:54;4.03;;;0.88;;
23988;SDS011;12202;52.136;5.592;2022-09-01T11:39:26;1.05;;;0.68;;
23988;SDS011;12202;52.136;5.592;2022-09-01T11:41:58;2.20;;;0.85;;
23988;SDS011;12202;52.136;5.592;2022-09-01T11:47:09;1.92;;;0.90;;
23988;SDS011;12202;52.136;5.592;2022-09-01T11:52:20;0.90;;;0.70;;
23988;SDS011;12202;52.136;5.592;2022-09-01T11:54:47;3.72;;;1.10;;
23988;SDS011;12202;52.136;5.592;2022-09-01T11:57:21;3.63;;;0.90;;
23988;SDS011;12202;52.136;5.592;2022-09-01T11:59:48;3.47;;;0.93;;
23988;SDS011;12202;52.136;5.592;2022-09-01T12:02:21;1.35;;;0.70;;
23988;SDS011;12202;52.136;5.592;2022-09-01T12:04:49;3.33;;;0.60;;
23988;SDS011;12202;52.136;5.592;2022-09-01T12:13:09;4.88;;;1.08;;
23988;SDS011;12202;52.136;5.592;2022-09-01T12:15:36;3.85;;;0.85;;
23988;SDS011;12202;52.136;5.592;2022-09-01T12:18:13;5.53;;;0.80;;
23988;SDS011;12202;52.136;5.592;2022-09-01T12:20:43;7.35;;;0.80;;
23988;SDS011;12202;52.136;5.592;2022-09-01T12:26:04;1.95;;;0.73;;
23988;SDS011;12202;52.136;5.592;2022-09-01T12:28:31;1.40;;;0.77;;
23988;SDS011;12202;52.136;5.592;2022-09-01T12:31:01;2.80;;;0.98;;
23988;SDS011;12202;52.136;5.592;2022-09-01T12:33:28;3.47;;;0.90;;
23988;SDS011;12202;52.136;5.592;2022-09-01T12:38:39;4.25;;;0.90;;
23988;SDS011;12202;52.136;5.592;2022-09-01T12:41:21;4.38;;;1.00;;
23988;SDS011;12202;52.136;5.592;2022-09-01T12:43:47;3.53;;;0.73;;
23988;SDS011;12202;52.136;5.592;2022-09-01T12:46:37;2.78;;;0.77;;
23988;SDS011;12202;52.136;5.592;2022-09-01T12:49:14;1.15;;;0.80;;
23988;SDS011;12202;52.136;5.592;2022-09-01T12:51:41;4.82;;;0.88;;
23988;SDS011;12202;52.136;5.592;2022-09-01T12:54:07;4.82;;;0.82;;
23988;SDS011;12202;52.136;5.592;2022-09-01T12:56:34;1.52;;;0.68;;
23988;SDS011;12202;52.136;5.592;2022-09-01T12:59:07;2.80;;;0.77;;
23988;SDS011;12202;52.136;5.592;2022-09-01T13:01:34;1.90;;;1.10;;
23988;SDS011;12202;52.136;5.592;2022-09-01T13:04:10;2.47;;;1.05;;
23988;SDS011;12202;52.136;5.592;2022-09-01T13:06:37;4.57;;;1.10;;
23988;SDS011;12202;52.136;5.592;2022-09-01T13:09:03;2.10;;;1.10;;
23988;SDS011;12202;52.136;5.592;2022-09-01T13:11:29;2.67;;;1.02;;
23988;SDS011;12202;52.136;5.592;2022-09-01T13:13:55;5.18;;;0.98;;
23988;SDS011;12202;52.136;5.592;2022-09-01T13:16:21;2.95;;;0.80;;
23988;SDS011;12202;52.136;5.592;2022-09-01T13:18:47;1.40;;;0.85;;
23988;SDS011;12202;52.136;5.592;2022-09-01T13:21:13;5.15;;;0.98;;
23988;SDS011;12202;52.136;5.592;2022-09-01T13:23:39;5.60;;;0.85;;
23988;SDS011;12202;52.136;5.592;2022-09-01T13:26:05;3.58;;;0.90;;
23988;SDS011;12202;52.136;5.592;2022-09-01T13:28:31;2.78;;;1.10;;
23988;SDS011;12202;52.136;5.592;2022-09-01T13:30:59;2.25;;;0.90;;
23988;SDS011;12202;52.136;5.592;2022-09-01T13:33:26;2.75;;;0.85;;
23988;SDS011;12202;52.136;5.592;2022-09-01T13:35:54;7.80;;;1.02;;
23988;SDS011;12202;52.136;5.592;2022-09-01T13:38:20;6.70;;;0.70;;
23988;SDS011;12202;52.136;5.592;2022-09-01T13:40:47;3.38;;;0.70;;
23988;SDS011;12202;52.136;5.592;2022-09-01T13:43:14;2.90;;;0.75;;
23988;SDS011;12202;52.136;5.592;2022-09-01T13:45:43;1.10;;;0.80;;
23988;SDS011;12202;52.136;5.592;2022-09-01T13:48:09;2.75;;;1.02;;
23988;SDS011;12202;52.136;5.592;2022-09-01T13:50:36;1.15;;;0.70;;
23988;SDS011;12202;52.136;5.592;2022-09-01T13:53:02;4.38;;;1.15;;
23988;SDS011;12202;52.136;5.592;2022-09-01T13:55:29;2.58;;;0.88;;
23988;SDS011;12202;52.136;5.592;2022-09-01T13:57:56;1.30;;;1.02;;
23988;SDS011;12202;52.136;5.592;2022-09-01T14:00:24;2.78;;;0.90;;
23988;SDS011;12202;52.136;5.592;2022-09-01T14:02:52;4.00;;;0.80;;
23988;SDS011;12202;52.136;5.592;2022-09-01T14:05:24;5.10;;;1.58;;
23988;SDS011;12202;52.136;5.592;2022-09-01T14:07:52;2.63;;;0.85;;
23988;SDS011;12202;52.136;5.592;2022-09-01T14:10:19;3.55;;;1.00;;
23988;SDS011;12202;52.136;5.592;2022-09-01T14:12:45;3.88;;;0.80;;
23988;SDS011;12202;52.136;5.592;2022-09-01T14:15:12;5.40;;;1.92;;
23988;SDS011;12202;52.136;5.592;2022-09-01T14:17:38;9.68;;;1.65;;
23988;SDS011;12202;52.136;5.592;2022-09-01T14:20:08;3.75;;;1.00;;
23988;SDS011;12202;52.136;5.592;2022-09-01T14:22:36;2.25;;;0.90;;
23988;SDS011;12202;52.136;5.592;2022-09-01T14:25:04;2.78;;;1.15;;
23988;SDS011;12202;52.136;5.592;2022-09-01T14:27:30;2.92;;;1.05;;
23988;SDS011;12202;52.136;5.592;2022-09-01T14:29:56;2.20;;;1.17;;
23988;SDS011;12202;52.136;5.592;2022-09-01T14:32:22;3.65;;;1.02;;
23988;SDS011;12202;52.136;5.592;2022-09-01T14:34:50;3.63;;;0.88;;
23988;SDS011;12202;52.136;5.592;2022-09-01T14:37:16;2.20;;;0.80;;
23988;SDS011;12202;52.136;5.592;2022-09-01T14:39:42;2.08;;;0.98;;
23988;SDS011;12202;52.136;5.592;2022-09-01T14:42:13;2.35;;;0.82;;
23988;SDS011;12202;52.136;5.592;2022-09-01T14:44:39;2.75;;;0.90;;
23988;SDS011;12202;52.136;5.592;2022-09-01T14:47:05;1.83;;;1.13;;
23988;SDS011;12202;52.136;5.592;2022-09-01T14:49:32;1.88;;;0.85;;
23988;SDS011;12202;52.136;5.592;2022-09-01T14:52:02;4.68;;;1.05;;
23988;SDS011;12202;52.136;5.592;2022-09-01T14:54:29;2.75;;;0.90;;
23988;SDS011;12202;52.136;5.592;2022-09-01T14:56:55;4.30;;;1.25;;
23988;SDS011;12202;52.136;5.592;2022-09-01T14:59:21;1.98;;;0.73;;
23988;SDS011;12202;52.136;5.592;2022-09-01T15:01:47;5.13;;;1.13;;
23988;SDS011;12202;52.136;5.592;2022-09-01T15:04:13;3.85;;;1.45;;
23988;SDS011;12202;52.136;5.592;2022-09-01T15:06:39;4.50;;;1.10;;
23988;SDS011;12202;52.136;5.592;2022-09-01T15:09:05;1.67;;;1.02;;
23988;SDS011;12202;52.136;5.592;2022-09-01T15:11:31;6.18;;;1.75;;
23988;SDS011;12202;52.136;5.592;2022-09-01T15:13:57;5.35;;;1.00;;
23988;SDS011;12202;52.136;5.592;2022-09-01T15:16:24;6.50;;;1.00;;
23988;SDS011;12202;52.136;5.592;2022-09-01T15:18:51;7.55;;;1.15;;
23988;SDS011;12202;52.136;5.592;2022-09-01T15:21:20;5.10;;;1.00;;
23988;SDS011;12202;52.136;5.592;2022-09-01T15:23:46;1.80;;;0.98;;
23988;SDS011;12202;52.136;5.592;2022-09-01T15:26:13;5.32;;;1.77;;
23988;SDS011;12202;52.136;5.592;2022-09-01T15:28:41;6.50;;;1.30;;
23988;SDS011;12202;52.136;5.592;2022-09-01T15:31:07;4.38;;;1.10;;
23988;SDS011;12202;52.136;5.592;2022-09-01T15:33:36;1.95;;;1.08;;
23988;SDS011;12202;52.136;5.592;2022-09-01T15:36:02;3.85;;;0.88;;
23988;SDS011;12202;52.136;5.592;2022-09-01T15:38:28;8.52;;;1.13;;
23988;SDS011;12202;52.136;5.592;2022-09-01T15:40:54;6.43;;;1.17;;
23988;SDS011;12202;52.136;5.592;2022-09-01T15:43:21;2.22;;;0.90;;
23988;SDS011;12202;52.136;5.592;2022-09-01T15:45:47;2.63;;;1.30;;
23988;SDS011;12202;52.136;5.592;2022-09-01T15:48:13;9.75;;;1.33;;
23988;SDS011;12202;52.136;5.592;2022-09-01T15:50:39;1.27;;;0.80;;
23988;SDS011;12202;52.136;5.592;2022-09-01T15:53:06;5.78;;;1.27;;
23988;SDS011;12202;52.136;5.592;2022-09-01T15:55:37;2.60;;;0.93;;